Timeline UpdatesTrip UpdatesNews PostsPvt PostsTravel TipsAdmin PostsConv PostsFollowed PostsChat RequestsBlog PostsPNR Posts

Disclaimer
Search
 
 
Wed Sep 3, 2014 00:25:53 ISTHomeTrainsΣChainsAtlasPNRForumGalleryNewsFAQTripsMembersLoginFeedback
No Recent News for this Train
Other Trains in the News **new
Latest...
.
Mon Nov 18, 2013 (08:49PM)
⇐ Return Journey: Train# 14650

14649/Saryu Yamuna Express

Time-Table HAS CHANGED.
Sep 01 (10:00PM)
Change Departure Station:
Change Arrival Station:
Post a Train Travel TipPost a Train Travel Tip **new
Post a Comment/Question/Picture/VideoPost a Comment/Question/Picture/Video
Pantry/Catering
✕ NO Pantry Car
✕ NO Catering
Loco/Rake Reversals
SPJ/Samastipur Junction (9); SHG/Shahganj Junction (4);
RSA - Rake Sharing
14673/74 Shaheed Express.
Rake/Coach Composition
LOCO,SLR,UR,UR,S1,S2,S3,S4,B1,AB1,S5,S6,S7,UR,UR,UR,UR,UR,UR,UR,UR,SLR
Loco
JYG-DLI=>TKD WDM 3A DLI-ASR=>GZB WAP 5/7
News    PNR    Forum    Time-Table    Availability    Fare Chart    Map    Arr/Dep History    Trips    Gallery    ΣChains    X/O    Timeline    
Travel Time: 41h 0m    60 halts    Distance: 1671 km    Avg Speed: 40 km/hr
Type: Mail/Express
Zone: NR/Northern
Departs @ 06:30
Platform# ???
S T  F 
Jaynagar/JYG 
Arrives @ 23:30 +1 night
Platform# 4
 M W  S
Amritsar Junction/ASR 

60 halts. 273 intermediate Stations between Jaynagar and Amritsar Junction

Show ALL intermediate Stations  Show Old Time-Table

#CodeStation NameX/OArrivesAvgDepartsAvgHaltPFDay#KmSpeedElevZoneAddress
1JYG»Jaynagar (3)»  -06:30---10.05268mECRDistt: Madhubani, Bihar
2KJIKhajauli  06:44-06:45-1m--112.05170mECRMadhubani, Bihar
3RJARajanagar  06:56-06:57-1m--121.33565mECRRajnagar Distt: Madhubani, Bihar
4MBIMadhubani (3)  07:14-07:15-1m--131.24562mECRMadhubani, Bihar
5PDWPandaulX  07:24 07:27-07:25 07:28-1m--140.22559mECRMadhubani, Bihar
6SKISakri Junction (5)X  07:47-07:52-5m--148.15055mECRMadhubani, Bihar
7TRSTarsarai  08:00-08:01-1m--154.74054mECRDarbhanga, Bihar
8KKHTKakarghatti  08:10 08:11-08:11 08:12-1m--161.31254mECRDarbhanga, Bihar
9DBGDarbhanga Junction (5)X  08:45-09:13-28m2167.74354mECRDarbhanga, Bihar
10LSILaheria Sarai (1)X  09:20-09:25-5m1172.76352mECRDarbhanga, Bihar
11HYTHaiaghat  09:36 09:35-09:37 09:36-1m--183.11951mECRDarbhanga, Bihar
12SPJSamastipur Junction (9)10:45-11:05-20m--1105.17055mECRSamastipur, Bihar
13MFPMuzaffarpur Junction (6)  11:55 11:50-12:05 11:55-10 5m31157.26357mECRMuzaffarpur, Bihar
14HJPHajipur Junction (3)X  12:59 12:46-13:00 12:47-1m11211.13355mECR06224-272230, Bihar
15SEESonpur Junction (4)X  13:10 12:57-13:20 13:02-10 5m--1216.63956mECRSaran, Bihar
16CPRChhapra Junction (6)X  14:25-14:40 14:35-15 10m--1270.66558mNERDistt: Saran, Bihar
17SIPSuraimanpurX  15:07 15:02-15:08 15:03-1m--1299.86060mNERBallia, Uttar Pradesh
18STWSahatwarX  15:29 15:22-15:30 15:23-1m--1318.83963mNERBallia district, Uttar Pradesh
19BUIBallia (3)  15:50-15:55-5m--1336.25462mNERBallia, Uttar Pradesh
20RSRRasra (2)  16:31-16:32-1m--1368.95170mNERRasra, Uttar Pradesh
21IAAIndara Junction (3)X  17:05-17:07-2m--1397.23474mNERMau, Uttar Pradesh
22MAUMau Junction (4)  17:20 17:21-17:35-15 14m41405.15975mNERMau., Uttar Pradesh
23MMAMuhammadabad (2)X  17:57-17:58-1m11426.82980mNERMuhammadabad Marg, Uttar Pradesh
24SAASathiaon (1)  18:17-18:18-1m11435.94481mNERState Highway 34, Uttar Pradesh
25AMHAzamgarh (2)  18:35-18:40-5m11448.46281mNERAzamgarh, Uttar Pradesh
26SMZSarai Mir (2)  19:05-19:06-1m11474.23087mNERTowa Ahirana, Uttar Pradesh
27KRNDKhorason Road (2)  19:18 19:24-19:19 19:25-1m11483.13285mNERUttar Pradesh 276304 ?, Uttar Pradesh
28SHGShahganj Junction (4)20:05-20:30-25m--1504.37490mNRShahganj, Uttar Pradesh
29ABPAkbarpur (2)  21:06-21:08-2m11548.47292mNRAkbarpur, Uttar Pradesh
30AYAyodhya Junction (3)  21:52 21:53-21:53 21:54-1m11602.31998mNRAyodhya, Uttar Pradesh
31FDFaizabad Junction (5)X  22:15-22:20-5m11609.071104mNRFaizabad, Uttar Pradesh
32RDLRudauli (2)  22:52-22:53-1m--1647.148112mNRRudauli, Uttar Pradesh
33BBKBarabanki Junction (4)X  00:10-00:11-1m--2708.332122mNRPin-225001, Uttar Pradesh
34LKOLucknow Charbagh (9)X  01:05-01:15-10m22736.867123mNR226004, Uttar Pradesh
35SPNShahjahanpur Junction (3)XO  03:43-03:48-5m--2901.726156mNRShahjahanpur, Uttar Pradesh
36BEBareilly Junction (4)  05:30 06:32-05:35 06:37-5m--2972.249174mNRBareilly, Uttar Pradesh
37RMURampur Junction (3)X  06:31 07:54-06:32 07:55-1m--21035.223190mNRRampur, Uttar Pradesh
38MBMoradabad Junction (7)  07:20 09:05-07:30 09:15-10m521062.557201mNRMoradabad, Uttar Pradesh
39AMROAmroha (3)  08:00 09:47-08:01 09:48-1m221093.075217mNRAmroha, Uttar Pradesh
40HPUHapur Junction (4)O  10:05 10:47-10:10 10:52-5m--21166.542214mNRHapur Jn., Uttar Pradesh
41GZBGhaziabad Junction (6)XO  11:07 11:45-11:09 11:47-2m321203.228217mNRGhaziabad, Uttar Pradesh
42DLIOld Delhi Junction (16)11:55 12:30-12:45 13:50-50 80m321223.312219mNRNear Chandni Chowk Metro Station, Delhi NCT
43SZMDelhi Sabzi Mandi (2)  12:59 14:05-13:00 14:06-1m--21226.276220mNRGulabi Bagh, Delhi NCT
44SNPSonipat (3)XO  13:35 14:38-13:36 14:39-1m--21266.633225mNRSonipat, Haryana
45PNPPanipat Junction (5)  14:20 16:00-14:25 16:02-5 2m321311.876235mNRPanipat, Haryana
46KUNKarnal (3)  14:54 16:29-14:55 16:30-1m--21346.266253mNRKarnal, Haryana
47KKDEKurukshetra Junction (3)  15:26 17:00-15:28 17:02-2m121379.256260mNRKurukshetra, Haryana
48UMBAmbala Cantt. Junction (7)X  16:20 17:47-16:30 17:55-10 8m721421.335278mNRAmbala 133001, Haryana
49UBCAmbala City (3)X  16:43 18:08-16:44 18:09-1m321428.977273mNRNH-1, Haryana
50RPJRajpura Junction (3)X  17:00 18:25-17:01 18:26-1m121449.471272mNRNH-1, Punjab
51SIRSirhind Junction (3)X  17:45 18:47-17:47 18:49-2m121474.273271mNRSirhind, Punjab
52GVGMandi Gobindgarh (2)  17:57 18:57-17:58 18:58-1m221484.054268mNRMandi Gobindgarh, Punjab
53KNNKhanna (3)X  18:07 19:07-18:08 19:08-1m121492.242269mNRNH 1, Punjab
54DOADoraha (2)  18:36 19:37-18:37 19:38-1m121512.552261mNRDoraha, Punjab
55LDHLudhiana Junction (7)X  19:30 20:04-19:40 20:10-10 6m221535.056246mNRLudhiana 141001, Punjab
56PHRPhillaur Junction (3)  20:04 20:24-20:05 20:25-1m221548.171246mNRPhillaur, Punjab
57PGWPhagwara Junction (3)  20:25 20:44-20:26 20:45-1m221570.661245mNRPhagwara, Punjab
58JRCJalandhar Cantt. Junction (3)X  20:40 21:01-20:42 21:03-2m121586.924239mNRNear Rama Mandi, Punjab
59JUCJalandhar City Junction (5)  20:45 21:15-20:55 21:20-10 5m121591.863239mNRJalandhar 144001, Punjab
60KREKartarpur (2)X  21:19 21:34-21:20 21:35-1m221606.468236mNRKartarpur, Punjab
61BEASBeas Junction (2)XO  21:44 21:54-21:45 21:55-1m121627.927238mNRBeas, Punjab
62ASR•Amritsar Junction (5)•  23:25 23:30--421670.9-233mNRAmritsar 143002, Punjab
Scroll to Top
Scroll to Bottom